sensor_id;sensor_type;location;lat;lon;timestamp;P1;durP1;ratioP1;P2;durP2;ratioP2
13368;SDS011;6753;52.520;13.450;2024-03-08T00:00:04;250.45;;;84.78;;
13368;SDS011;6753;52.520;13.450;2024-03-08T00:00:21;264.40;;;90.53;;
13368;SDS011;6753;52.520;13.450;2024-03-08T00:00:33;266.92;;;91.55;;
13368;SDS011;6753;52.520;13.450;2024-03-08T00:00:43;272.43;;;92.47;;
13368;SDS011;6753;52.520;13.450;2024-03-08T00:00:54;269.48;;;92.88;;
13368;SDS011;6753;52.520;13.450;2024-03-08T00:01:05;279.48;;;93.32;;
13368;SDS011;6753;52.520;13.450;2024-03-08T00:01:16;260.30;;;89.00;;
13368;SDS011;6753;52.520;13.450;2024-03-08T00:01:29;279.90;;;88.80;;
13368;SDS011;6753;52.520;13.450;2024-03-08T00:01:39;277.43;;;86.40;;
13368;SDS011;6753;52.520;13.450;2024-03-08T00:01:50;338.38;;;103.00;;
13368;SDS011;6753;52.520;13.450;2024-03-08T00:02:02;317.65;;;100.43;;
13368;SDS011;6753;52.520;13.450;2024-03-08T00:02:12;311.50;;;103.28;;
13368;SDS011;6753;52.520;13.450;2024-03-08T00:02:23;300.55;;;101.40;;
13368;SDS011;6753;52.520;13.450;2024-03-08T00:02:35;294.33;;;98.63;;
13368;SDS011;6753;52.520;13.450;2024-03-08T00:02:47;278.75;;;96.80;;
13368;SDS011;6753;52.520;13.450;2024-03-08T00:02:58;281.90;;;98.03;;
13368;SDS011;6753;52.520;13.450;2024-03-08T00:03:09;268.80;;;94.57;;
13368;SDS011;6753;52.520;13.450;2024-03-08T00:03:20;278.25;;;94.22;;
13368;SDS011;6753;52.520;13.450;2024-03-08T00:03:31;286.73;;;99.00;;
13368;SDS011;6753;52.520;13.450;2024-03-08T00:03:42;296.27;;;101.32;;
13368;SDS011;6753;52.520;13.450;2024-03-08T00:03:53;290.52;;;101.05;;
13368;SDS011;6753;52.520;13.450;2024-03-08T00:04:04;306.60;;;104.80;;
13368;SDS011;6753;52.520;13.450;2024-03-08T00:04:16;308.73;;;108.85;;
13368;SDS011;6753;52.520;13.450;2024-03-08T00:04:26;293.20;;;106.18;;
13368;SDS011;6753;52.520;13.450;2024-03-08T00:04:37;281.48;;;102.07;;
13368;SDS011;6753;52.520;13.450;2024-03-08T00:04:49;291.83;;;102.43;;
13368;SDS011;6753;52.520;13.450;2024-03-08T00:05:00;282.30;;;97.30;;
13368;SDS011;6753;52.520;13.450;2024-03-08T00:05:11;282.10;;;93.50;;
13368;SDS011;6753;52.520;13.450;2024-03-08T00:05:22;301.02;;;95.80;;
13368;SDS011;6753;52.520;13.450;2024-03-08T00:05:33;319.05;;;100.03;;
13368;SDS011;6753;52.520;13.450;2024-03-08T00:05:44;290.30;;;99.73;;
13368;SDS011;6753;52.520;13.450;2024-03-08T00:05:55;267.17;;;97.95;;
13368;SDS011;6753;52.520;13.450;2024-03-08T00:06:06;258.42;;;95.95;;
13368;SDS011;6753;52.520;13.450;2024-03-08T00:06:17;247.30;;;92.20;;
13368;SDS011;6753;52.520;13.450;2024-03-08T00:06:28;263.70;;;92.28;;
13368;SDS011;6753;52.520;13.450;2024-03-08T00:06:39;270.97;;;89.47;;
13368;SDS011;6753;52.520;13.450;2024-03-08T00:06:50;263.15;;;88.68;;
13368;SDS011;6753;52.520;13.450;2024-03-08T00:07:00;261.90;;;86.38;;
13368;SDS011;6753;52.520;13.450;2024-03-08T00:07:11;273.80;;;89.13;;
13368;SDS011;6753;52.520;13.450;2024-03-08T00:07:23;274.08;;;90.13;;
13368;SDS011;6753;52.520;13.450;2024-03-08T00:07:34;280.38;;;91.65;;
13368;SDS011;6753;52.520;13.450;2024-03-08T00:07:44;299.85;;;95.93;;
13368;SDS011;6753;52.520;13.450;2024-03-08T00:07:55;299.53;;;97.60;;
13368;SDS011;6753;52.520;13.450;2024-03-08T00:08:06;304.00;;;100.53;;
13368;SDS011;6753;52.520;13.450;2024-03-08T00:08:19;303.00;;;100.67;;
13368;SDS011;6753;52.520;13.450;2024-03-08T00:08:31;307.27;;;100.97;;
13368;SDS011;6753;52.520;13.450;2024-03-08T00:08:42;294.27;;;99.53;;
13368;SDS011;6753;52.520;13.450;2024-03-08T00:08:53;304.33;;;102.10;;
13368;SDS011;6753;52.520;13.450;2024-03-08T00:09:03;308.90;;;103.43;;
13368;SDS011;6753;52.520;13.450;2024-03-08T00:09:14;308.95;;;104.40;;
13368;SDS011;6753;52.520;13.450;2024-03-08T00:09:25;309.80;;;104.70;;
13368;SDS011;6753;52.520;13.450;2024-03-08T00:09:37;301.58;;;100.95;;
13368;SDS011;6753;52.520;13.450;2024-03-08T00:09:48;297.35;;;101.15;;
13368;SDS011;6753;52.520;13.450;2024-03-08T00:09:58;288.77;;;99.00;;
13368;SDS011;6753;52.520;13.450;2024-03-08T00:10:10;286.55;;;98.30;;
13368;SDS011;6753;52.520;13.450;2024-03-08T00:10:22;295.95;;;100.57;;
13368;SDS011;6753;52.520;13.450;2024-03-08T00:10:33;303.52;;;106.47;;
13368;SDS011;6753;52.520;13.450;2024-03-08T00:10:43;314.77;;;109.75;;
13368;SDS011;6753;52.520;13.450;2024-03-08T00:10:54;312.27;;;105.45;;
13368;SDS011;6753;52.520;13.450;2024-03-08T00:11:05;321.02;;;107.78;;
13368;SDS011;6753;52.520;13.450;2024-03-08T00:11:15;328.00;;;108.33;;
13368;SDS011;6753;52.520;13.450;2024-03-08T00:11:26;318.90;;;106.65;;
13368;SDS011;6753;52.520;13.450;2024-03-08T00:11:37;323.23;;;106.95;;
13368;SDS011;6753;52.520;13.450;2024-03-08T00:11:48;313.70;;;106.27;;
13368;SDS011;6753;52.520;13.450;2024-03-08T00:12:00;310.98;;;109.50;;
13368;SDS011;6753;52.520;13.450;2024-03-08T00:12:10;305.55;;;107.60;;
13368;SDS011;6753;52.520;13.450;2024-03-08T00:12:21;296.90;;;104.63;;
13368;SDS011;6753;52.520;13.450;2024-03-08T00:12:33;287.60;;;101.55;;
13368;SDS011;6753;52.520;13.450;2024-03-08T00:12:44;289.55;;;99.38;;
13368;SDS011;6753;52.520;13.450;2024-03-08T00:12:56;287.35;;;98.13;;
13368;SDS011;6753;52.520;13.450;2024-03-08T00:13:07;289.42;;;98.13;;
13368;SDS011;6753;52.520;13.450;2024-03-08T00:13:18;285.75;;;95.70;;
13368;SDS011;6753;52.520;13.450;2024-03-08T00:13:29;315.20;;;99.50;;
13368;SDS011;6753;52.520;13.450;2024-03-08T00:13:39;321.48;;;98.13;;
13368;SDS011;6753;52.520;13.450;2024-03-08T00:13:51;308.58;;;99.55;;
13368;SDS011;6753;52.520;13.450;2024-03-08T00:14:02;293.73;;;96.68;;
13368;SDS011;6753;52.520;13.450;2024-03-08T00:14:16;289.40;;;95.13;;
13368;SDS011;6753;52.520;13.450;2024-03-08T00:14:28;293.13;;;96.72;;
13368;SDS011;6753;52.520;13.450;2024-03-08T00:14:39;304.97;;;99.50;;
13368;SDS011;6753;52.520;13.450;2024-03-08T00:14:49;299.23;;;97.35;;
13368;SDS011;6753;52.520;13.450;2024-03-08T00:15:00;300.38;;;100.88;;
13368;SDS011;6753;52.520;13.450;2024-03-08T00:15:11;307.10;;;101.93;;
13368;SDS011;6753;52.520;13.450;2024-03-08T00:15:24;321.33;;;93.68;;
13368;SDS011;6753;52.520;13.450;2024-03-08T00:15:35;287.07;;;90.63;;
13368;SDS011;6753;52.520;13.450;2024-03-08T00:15:46;301.63;;;92.93;;
13368;SDS011;6753;52.520;13.450;2024-03-08T00:15:57;312.05;;;94.47;;
13368;SDS011;6753;52.520;13.450;2024-03-08T00:16:08;299.15;;;92.95;;
13368;SDS011;6753;52.520;13.450;2024-03-08T00:16:20;282.55;;;91.20;;
13368;SDS011;6753;52.520;13.450;2024-03-08T00:16:33;280.08;;;90.13;;
13368;SDS011;6753;52.520;13.450;2024-03-08T00:16:43;259.98;;;88.75;;
13368;SDS011;6753;52.520;13.450;2024-03-08T00:16:54;238.30;;;86.53;;
13368;SDS011;6753;52.520;13.450;2024-03-08T00:17:05;236.30;;;84.18;;
13368;SDS011;6753;52.520;13.450;2024-03-08T00:17:16;249.40;;;87.63;;
13368;SDS011;6753;52.520;13.450;2024-03-08T00:17:26;255.48;;;89.60;;
13368;SDS011;6753;52.520;13.450;2024-03-08T00:17:37;262.10;;;90.17;;
13368;SDS011;6753;52.520;13.450;2024-03-08T00:17:48;272.63;;;90.65;;
13368;SDS011;6753;52.520;13.450;2024-03-08T00:17:59;276.60;;;93.00;;
13368;SDS011;6753;52.520;13.450;2024-03-08T00:18:09;283.33;;;97.53;;
13368;SDS011;6753;52.520;13.450;2024-03-08T00:18:21;269.00;;;92.10;;
13368;SDS011;6753;52.520;13.450;2024-03-08T00:18:32;258.80;;;91.35;;
13368;SDS011;6753;52.520;13.450;2024-03-08T00:18:43;256.30;;;92.07;;
13368;SDS011;6753;52.520;13.450;2024-03-08T00:18:53;254.33;;;92.23;;
13368;SDS011;6753;52.520;13.450;2024-03-08T00:19:04;255.10;;;90.70;;
13368;SDS011;6753;52.520;13.450;2024-03-08T00:19:15;267.40;;;91.00;;
13368;SDS011;6753;52.520;13.450;2024-03-08T00:19:25;278.20;;;93.97;;
13368;SDS011;6753;52.520;13.450;2024-03-08T00:19:36;279.90;;;96.90;;
13368;SDS011;6753;52.520;13.450;2024-03-08T00:19:47;294.98;;;100.78;;
13368;SDS011;6753;52.520;13.450;2024-03-08T00:19:58;305.90;;;103.95;;
13368;SDS011;6753;52.520;13.450;2024-03-08T00:20:09;319.45;;;107.13;;
13368;SDS011;6753;52.520;13.450;2024-03-08T00:20:20;310.90;;;107.78;;
13368;SDS011;6753;52.520;13.450;2024-03-08T00:20:33;326.13;;;107.55;;
13368;SDS011;6753;52.520;13.450;2024-03-08T00:20:44;314.03;;;104.23;;
13368;SDS011;6753;52.520;13.450;2024-03-08T00:20:55;312.42;;;101.00;;
13368;SDS011;6753;52.520;13.450;2024-03-08T00:21:06;293.85;;;95.70;;
13368;SDS011;6753;52.520;13.450;2024-03-08T00:21:18;285.48;;;91.95;;
13368;SDS011;6753;52.520;13.450;2024-03-08T00:21:29;275.95;;;91.43;;
13368;SDS011;6753;52.520;13.450;2024-03-08T00:21:41;275.13;;;92.05;;
13368;SDS011;6753;52.520;13.450;2024-03-08T00:21:52;287.55;;;93.82;;
13368;SDS011;6753;52.520;13.450;2024-03-08T00:22:03;289.88;;;95.43;;
13368;SDS011;6753;52.520;13.450;2024-03-08T00:22:14;296.50;;;97.38;;
13368;SDS011;6753;52.520;13.450;2024-03-08T00:22:28;306.23;;;95.32;;
13368;SDS011;6753;52.520;13.450;2024-03-08T00:22:40;296.90;;;93.07;;
13368;SDS011;6753;52.520;13.450;2024-03-08T00:22:51;296.70;;;94.33;;
13368;SDS011;6753;52.520;13.450;2024-03-08T00:23:02;298.75;;;93.20;;
13368;SDS011;6753;52.520;13.450;2024-03-08T00:23:13;285.17;;;91.85;;
13368;SDS011;6753;52.520;13.450;2024-03-08T00:23:25;274.15;;;92.05;;
13368;SDS011;6753;52.520;13.450;2024-03-08T00:23:37;283.52;;;93.25;;
13368;SDS011;6753;52.520;13.450;2024-03-08T00:23:49;275.17;;;90.82;;
13368;SDS011;6753;52.520;13.450;2024-03-08T00:24:00;271.45;;;94.15;;
13368;SDS011;6753;52.520;13.450;2024-03-08T00:24:10;290.10;;;96.60;;
13368;SDS011;6753;52.520;13.450;2024-03-08T00:24:22;287.15;;;97.05;;
13368;SDS011;6753;52.520;13.450;2024-03-08T00:24:35;290.50;;;99.28;;
13368;SDS011;6753;52.520;13.450;2024-03-08T00:24:47;304.95;;;106.03;;
13368;SDS011;6753;52.520;13.450;2024-03-08T00:25:00;309.40;;;106.93;;
13368;SDS011;6753;52.520;13.450;2024-03-08T00:25:11;311.23;;;109.78;;
13368;SDS011;6753;52.520;13.450;2024-03-08T00:25:22;317.97;;;112.13;;
13368;SDS011;6753;52.520;13.450;2024-03-08T00:25:33;319.42;;;111.38;;
13368;SDS011;6753;52.520;13.450;2024-03-08T00:25:44;327.77;;;109.83;;
13368;SDS011;6753;52.520;13.450;2024-03-08T00:25:55;336.15;;;112.50;;
13368;SDS011;6753;52.520;13.450;2024-03-08T00:26:07;336.38;;;113.07;;
13368;SDS011;6753;52.520;13.450;2024-03-08T00:26:18;340.10;;;114.15;;
13368;SDS011;6753;52.520;13.450;2024-03-08T00:26:28;362.77;;;118.67;;
13368;SDS011;6753;52.520;13.450;2024-03-08T00:26:39;356.13;;;123.32;;
13368;SDS011;6753;52.520;13.450;2024-03-08T00:26:52;359.15;;;123.20;;
13368;SDS011;6753;52.520;13.450;2024-03-08T00:27:04;346.65;;;119.95;;
13368;SDS011;6753;52.520;13.450;2024-03-08T00:27:16;342.90;;;118.43;;
13368;SDS011;6753;52.520;13.450;2024-03-08T00:27:26;332.00;;;111.37;;
13368;SDS011;6753;52.520;13.450;2024-03-08T00:27:37;310.08;;;103.28;;
13368;SDS011;6753;52.520;13.450;2024-03-08T00:27:48;300.83;;;99.90;;
13368;SDS011;6753;52.520;13.450;2024-03-08T00:28:00;297.42;;;96.00;;
13368;SDS011;6753;52.520;13.450;2024-03-08T00:28:11;291.60;;;95.07;;
13368;SDS011;6753;52.520;13.450;2024-03-08T00:28:25;292.23;;;95.57;;
13368;SDS011;6753;52.520;13.450;2024-03-08T00:28:37;301.02;;;98.55;;
13368;SDS011;6753;52.520;13.450;2024-03-08T00:28:48;300.05;;;97.82;;
13368;SDS011;6753;52.520;13.450;2024-03-08T00:29:00;300.50;;;97.13;;
13368;SDS011;6753;52.520;13.450;2024-03-08T00:29:11;294.48;;;92.35;;
13368;SDS011;6753;52.520;13.450;2024-03-08T00:29:23;294.65;;;93.43;;
13368;SDS011;6753;52.520;13.450;2024-03-08T00:29:34;288.70;;;91.67;;
13368;SDS011;6753;52.520;13.450;2024-03-08T00:29:45;291.52;;;94.22;;
13368;SDS011;6753;52.520;13.450;2024-03-08T00:29:57;331.38;;;111.38;;
13368;SDS011;6753;52.520;13.450;2024-03-08T00:30:08;272.73;;;94.47;;
13368;SDS011;6753;52.520;13.450;2024-03-08T00:30:19;254.25;;;91.03;;
13368;SDS011;6753;52.520;13.450;2024-03-08T00:30:30;237.27;;;86.10;;
13368;SDS011;6753;52.520;13.450;2024-03-08T00:30:41;237.18;;;85.45;;
13368;SDS011;6753;52.520;13.450;2024-03-08T00:30:52;261.95;;;89.68;;
13368;SDS011;6753;52.520;13.450;2024-03-08T00:31:03;311.08;;;105.20;;
13368;SDS011;6753;52.520;13.450;2024-03-08T00:31:17;297.48;;;101.53;;
13368;SDS011;6753;52.520;13.450;2024-03-08T00:31:27;291.95;;;99.20;;
13368;SDS011;6753;52.520;13.450;2024-03-08T00:31:40;307.35;;;99.45;;
13368;SDS011;6753;52.520;13.450;2024-03-08T00:31:51;307.90;;;99.25;;
13368;SDS011;6753;52.520;13.450;2024-03-08T00:32:02;304.63;;;98.03;;
13368;SDS011;6753;52.520;13.450;2024-03-08T00:32:13;319.70;;;99.50;;
13368;SDS011;6753;52.520;13.450;2024-03-08T00:32:23;337.00;;;100.53;;
13368;SDS011;6753;52.520;13.450;2024-03-08T00:32:35;316.70;;;99.30;;
13368;SDS011;6753;52.520;13.450;2024-03-08T00:32:46;323.88;;;101.07;;
13368;SDS011;6753;52.520;13.450;2024-03-08T00:32:58;328.23;;;102.03;;
13368;SDS011;6753;52.520;13.450;2024-03-08T00:33:09;326.45;;;102.57;;
13368;SDS011;6753;52.520;13.450;2024-03-08T00:33:20;308.37;;;103.07;;
13368;SDS011;6753;52.520;13.450;2024-03-08T00:33:31;321.83;;;106.50;;
13368;SDS011;6753;52.520;13.450;2024-03-08T00:33:42;337.65;;;111.13;;
13368;SDS011;6753;52.520;13.450;2024-03-08T00:33:53;320.38;;;107.47;;
13368;SDS011;6753;52.520;13.450;2024-03-08T00:34:04;306.63;;;106.83;;
13368;SDS011;6753;52.520;13.450;2024-03-08T00:34:15;323.38;;;107.80;;
13368;SDS011;6753;52.520;13.450;2024-03-08T00:34:26;325.52;;;108.75;;
13368;SDS011;6753;52.520;13.450;2024-03-08T00:34:36;313.40;;;105.57;;
13368;SDS011;6753;52.520;13.450;2024-03-08T00:34:47;310.13;;;105.03;;
13368;SDS011;6753;52.520;13.450;2024-03-08T00:34:58;312.30;;;107.13;;
13368;SDS011;6753;52.520;13.450;2024-03-08T00:35:09;308.05;;;104.55;;
13368;SDS011;6753;52.520;13.450;2024-03-08T00:35:22;310.33;;;102.38;;
13368;SDS011;6753;52.520;13.450;2024-03-08T00:35:33;300.15;;;99.72;;
13368;SDS011;6753;52.520;13.450;2024-03-08T00:35:43;292.10;;;97.53;;
13368;SDS011;6753;52.520;13.450;2024-03-08T00:35:54;299.83;;;96.13;;
13368;SDS011;6753;52.520;13.450;2024-03-08T00:36:05;315.25;;;96.63;;
13368;SDS011;6753;52.520;13.450;2024-03-08T00:36:17;315.42;;;102.57;;
13368;SDS011;6753;52.520;13.450;2024-03-08T00:36:28;305.42;;;101.55;;
13368;SDS011;6753;52.520;13.450;2024-03-08T00:36:40;329.65;;;107.50;;
13368;SDS011;6753;52.520;13.450;2024-03-08T00:36:51;325.58;;;105.45;;
13368;SDS011;6753;52.520;13.450;2024-03-08T00:37:02;319.30;;;105.07;;
13368;SDS011;6753;52.520;13.450;2024-03-08T00:37:13;297.63;;;97.82;;
13368;SDS011;6753;52.520;13.450;2024-03-08T00:37:25;313.75;;;100.47;;
13368;SDS011;6753;52.520;13.450;2024-03-08T00:37:35;306.23;;;98.90;;
13368;SDS011;6753;52.520;13.450;2024-03-08T00:37:46;305.98;;;100.05;;
13368;SDS011;6753;52.520;13.450;2024-03-08T00:37:57;309.55;;;102.45;;
13368;SDS011;6753;52.520;13.450;2024-03-08T00:38:08;307.35;;;103.70;;
13368;SDS011;6753;52.520;13.450;2024-03-08T00:38:18;293.53;;;100.50;;
13368;SDS011;6753;52.520;13.450;2024-03-08T00:38:29;287.67;;;100.68;;
13368;SDS011;6753;52.520;13.450;2024-03-08T00:38:41;292.60;;;102.95;;
13368;SDS011;6753;52.520;13.450;2024-03-08T00:38:52;296.38;;;104.68;;
13368;SDS011;6753;52.520;13.450;2024-03-08T00:39:03;288.33;;;102.13;;
13368;SDS011;6753;52.520;13.450;2024-03-08T00:39:16;301.70;;;106.38;;
13368;SDS011;6753;52.520;13.450;2024-03-08T00:39:27;299.52;;;105.57;;
13368;SDS011;6753;52.520;13.450;2024-03-08T00:39:38;293.10;;;104.87;;
13368;SDS011;6753;52.520;13.450;2024-03-08T00:39:48;276.70;;;100.53;;
13368;SDS011;6753;52.520;13.450;2024-03-08T00:39:59;289.50;;;100.72;;
13368;SDS011;6753;52.520;13.450;2024-03-08T00:40:10;278.50;;;96.45;;
13368;SDS011;6753;52.520;13.450;2024-03-08T00:40:21;267.27;;;91.13;;
13368;SDS011;6753;52.520;13.450;2024-03-08T00:40:33;264.27;;;89.75;;
13368;SDS011;6753;52.520;13.450;2024-03-08T00:40:44;245.05;;;83.55;;
13368;SDS011;6753;52.520;13.450;2024-03-08T00:40:55;235.57;;;79.78;;
13368;SDS011;6753;52.520;13.450;2024-03-08T00:41:06;226.98;;;78.95;;
13368;SDS011;6753;52.520;13.450;2024-03-08T00:41:17;240.25;;;81.30;;
13368;SDS011;6753;52.520;13.450;2024-03-08T00:41:28;244.95;;;80.25;;
13368;SDS011;6753;52.520;13.450;2024-03-08T00:41:39;246.90;;;80.70;;
13368;SDS011;6753;52.520;13.450;2024-03-08T00:41:50;251.50;;;82.00;;
13368;SDS011;6753;52.520;13.450;2024-03-08T00:42:00;251.75;;;83.90;;
13368;SDS011;6753;52.520;13.450;2024-03-08T00:42:11;249.15;;;83.85;;
13368;SDS011;6753;52.520;13.450;2024-03-08T00:42:22;241.60;;;82.27;;
13368;SDS011;6753;52.520;13.450;2024-03-08T00:42:34;228.32;;;80.95;;
13368;SDS011;6753;52.520;13.450;2024-03-08T00:42:45;225.80;;;81.93;;
13368;SDS011;6753;52.520;13.450;2024-03-08T00:42:56;227.88;;;82.85;;
13368;SDS011;6753;52.520;13.450;2024-03-08T00:43:06;214.35;;;79.18;;
13368;SDS011;6753;52.520;13.450;2024-03-08T00:43:17;216.70;;;79.37;;
13368;SDS011;6753;52.520;13.450;2024-03-08T00:43:28;209.38;;;79.38;;
13368;SDS011;6753;52.520;13.450;2024-03-08T00:43:40;223.73;;;80.45;;
13368;SDS011;6753;52.520;13.450;2024-03-08T00:43:50;222.85;;;77.55;;
13368;SDS011;6753;52.520;13.450;2024-03-08T00:44:03;221.67;;;75.93;;
13368;SDS011;6753;52.520;13.450;2024-03-08T00:44:15;228.13;;;74.28;;
13368;SDS011;6753;52.520;13.450;2024-03-08T00:44:26;231.25;;;73.93;;
13368;SDS011;6753;52.520;13.450;2024-03-08T00:44:36;238.30;;;74.70;;
13368;SDS011;6753;52.520;13.450;2024-03-08T00:44:47;242.32;;;76.50;;
13368;SDS011;6753;52.520;13.450;2024-03-08T00:45:00;243.23;;;78.53;;
13368;SDS011;6753;52.520;13.450;2024-03-08T00:45:11;258.67;;;82.77;;
13368;SDS011;6753;52.520;13.450;2024-03-08T00:45:22;265.55;;;84.20;;
13368;SDS011;6753;52.520;13.450;2024-03-08T00:45:33;265.55;;;86.53;;
13368;SDS011;6753;52.520;13.450;2024-03-08T00:45:44;267.30;;;87.38;;
13368;SDS011;6753;52.520;13.450;2024-03-08T00:45:55;283.70;;;91.80;;
13368;SDS011;6753;52.520;13.450;2024-03-08T00:46:07;287.42;;;95.28;;
13368;SDS011;6753;52.520;13.450;2024-03-08T00:46:18;290.33;;;96.55;;
13368;SDS011;6753;52.520;13.450;2024-03-08T00:46:29;281.17;;;94.88;;
13368;SDS011;6753;52.520;13.450;2024-03-08T00:46:40;274.30;;;94.93;;
13368;SDS011;6753;52.520;13.450;2024-03-08T00:46:50;256.02;;;91.10;;
13368;SDS011;6753;52.520;13.450;2024-03-08T00:47:01;252.95;;;89.30;;
13368;SDS011;6753;52.520;13.450;2024-03-08T00:47:13;234.52;;;83.45;;
13368;SDS011;6753;52.520;13.450;2024-03-08T00:47:24;222.52;;;80.50;;
13368;SDS011;6753;52.520;13.450;2024-03-08T00:47:35;222.13;;;79.72;;
13368;SDS011;6753;52.520;13.450;2024-03-08T00:47:46;237.17;;;82.93;;
13368;SDS011;6753;52.520;13.450;2024-03-08T00:47:56;242.35;;;83.05;;
13368;SDS011;6753;52.520;13.450;2024-03-08T00:48:07;306.50;;;94.75;;
13368;SDS011;6753;52.520;13.450;2024-03-08T00:48:19;291.95;;;100.90;;
13368;SDS011;6753;52.520;13.450;2024-03-08T00:48:30;286.50;;;95.10;;
13368;SDS011;6753;52.520;13.450;2024-03-08T00:48:41;290.00;;;94.05;;
13368;SDS011;6753;52.520;13.450;2024-03-08T00:48:53;286.50;;;93.10;;
13368;SDS011;6753;52.520;13.450;2024-03-08T00:49:04;271.67;;;90.73;;
13368;SDS011;6753;52.520;13.450;2024-03-08T00:49:14;261.27;;;90.03;;
13368;SDS011;6753;52.520;13.450;2024-03-08T00:49:25;251.32;;;88.43;;
13368;SDS011;6753;52.520;13.450;2024-03-08T00:49:36;239.50;;;87.23;;
13368;SDS011;6753;52.520;13.450;2024-03-08T00:49:48;235.98;;;87.32;;
13368;SDS011;6753;52.520;13.450;2024-03-08T00:49:58;221.95;;;83.55;;
13368;SDS011;6753;52.520;13.450;2024-03-08T00:50:09;237.00;;;82.13;;
13368;SDS011;6753;52.520;13.450;2024-03-08T00:50:21;238.18;;;82.25;;
13368;SDS011;6753;52.520;13.450;2024-03-08T00:50:32;242.98;;;80.85;;
13368;SDS011;6753;52.520;13.450;2024-03-08T00:50:43;242.00;;;78.22;;
13368;SDS011;6753;52.520;13.450;2024-03-08T00:50:55;245.93;;;79.95;;
13368;SDS011;6753;52.520;13.450;2024-03-08T00:51:06;236.27;;;81.60;;
13368;SDS011;6753;52.520;13.450;2024-03-08T00:51:17;232.77;;;79.75;;
13368;SDS011;6753;52.520;13.450;2024-03-08T00:51:28;244.00;;;80.20;;
13368;SDS011;6753;52.520;13.450;2024-03-08T00:51:39;237.88;;;77.57;;
13368;SDS011;6753;52.520;13.450;2024-03-08T00:51:49;252.25;;;80.65;;
13368;SDS011;6753;52.520;13.450;2024-03-08T00:52:03;257.60;;;80.70;;
13368;SDS011;6753;52.520;13.450;2024-03-08T00:52:18;267.42;;;83.50;;
13368;SDS011;6753;52.520;13.450;2024-03-08T00:52:29;256.13;;;83.93;;
13368;SDS011;6753;52.520;13.450;2024-03-08T00:52:40;264.58;;;84.55;;
13368;SDS011;6753;52.520;13.450;2024-03-08T00:52:51;256.75;;;83.40;;
13368;SDS011;6753;52.520;13.450;2024-03-08T00:53:02;262.48;;;84.95;;
13368;SDS011;6753;52.520;13.450;2024-03-08T00:53:13;256.38;;;82.75;;
13368;SDS011;6753;52.520;13.450;2024-03-08T00:53:23;258.27;;;85.15;;
13368;SDS011;6753;52.520;13.450;2024-03-08T00:53:34;249.77;;;84.00;;
13368;SDS011;6753;52.520;13.450;2024-03-08T00:53:45;242.57;;;84.10;;
13368;SDS011;6753;52.520;13.450;2024-03-08T00:53:56;241.77;;;85.43;;
13368;SDS011;6753;52.520;13.450;2024-03-08T00:54:07;238.23;;;84.78;;
13368;SDS011;6753;52.520;13.450;2024-03-08T00:54:18;261.63;;;87.95;;
13368;SDS011;6753;52.520;13.450;2024-03-08T00:54:29;263.63;;;87.45;;
13368;SDS011;6753;52.520;13.450;2024-03-08T00:54:40;283.20;;;90.85;;
13368;SDS011;6753;52.520;13.450;2024-03-08T00:54:53;291.00;;;92.13;;
13368;SDS011;6753;52.520;13.450;2024-03-08T00:55:04;288.63;;;91.27;;
13368;SDS011;6753;52.520;13.450;2024-03-08T00:55:15;268.48;;;85.03;;
13368;SDS011;6753;52.520;13.450;2024-03-08T00:55:26;264.90;;;84.50;;
13368;SDS011;6753;52.520;13.450;2024-03-08T00:55:36;195.90;;;82.00;;
13368;SDS011;6753;52.520;13.450;2024-03-08T00:55:48;216.95;;;83.80;;
13368;SDS011;6753;52.520;13.450;2024-03-08T00:55:58;226.83;;;82.50;;
13368;SDS011;6753;52.520;13.450;2024-03-08T00:56:10;240.90;;;81.68;;
13368;SDS011;6753;52.520;13.450;2024-03-08T00:56:21;236.40;;;79.93;;
13368;SDS011;6753;52.520;13.450;2024-03-08T00:56:32;244.47;;;80.33;;
13368;SDS011;6753;52.520;13.450;2024-03-08T00:56:43;255.15;;;81.38;;
13368;SDS011;6753;52.520;13.450;2024-03-08T00:56:55;255.88;;;81.20;;
13368;SDS011;6753;52.520;13.450;2024-03-08T00:57:06;253.40;;;82.78;;
13368;SDS011;6753;52.520;13.450;2024-03-08T00:57:17;250.15;;;82.22;;
13368;SDS011;6753;52.520;13.450;2024-03-08T00:57:28;254.40;;;83.40;;
13368;SDS011;6753;52.520;13.450;2024-03-08T00:57:38;248.00;;;82.68;;
13368;SDS011;6753;52.520;13.450;2024-03-08T00:57:49;238.25;;;82.22;;
13368;SDS011;6753;52.520;13.450;2024-03-08T00:58:00;236.00;;;79.47;;
13368;SDS011;6753;52.520;13.450;2024-03-08T00:58:11;240.48;;;80.47;;
13368;SDS011;6753;52.520;13.450;2024-03-08T00:58:22;242.43;;;80.63;;
13368;SDS011;6753;52.520;13.450;2024-03-08T00:58:34;233.10;;;78.65;;
13368;SDS011;6753;52.520;13.450;2024-03-08T00:58:46;239.57;;;79.38;;
13368;SDS011;6753;52.520;13.450;2024-03-08T00:58:56;249.07;;;82.25;;
13368;SDS011;6753;52.520;13.450;2024-03-08T00:59:08;245.90;;;80.90;;
13368;SDS011;6753;52.520;13.450;2024-03-08T00:59:19;239.73;;;79.65;;
13368;SDS011;6753;52.520;13.450;2024-03-08T00:59:30;256.07;;;80.77;;
13368;SDS011;6753;52.520;13.450;2024-03-08T00:59:42;253.40;;;82.07;;
13368;SDS011;6753;52.520;13.450;2024-03-08T00:59:53;262.60;;;82.20;;
13368;SDS011;6753;52.520;13.450;2024-03-08T01:00:04;263.75;;;83.60;;
13368;SDS011;6753;52.520;13.450;2024-03-08T01:00:19;234.87;;;76.73;;
13368;SDS011;6753;52.520;13.450;2024-03-08T01:00:31;256.90;;;81.47;;
13368;SDS011;6753;52.520;13.450;2024-03-08T01:00:43;236.82;;;77.38;;
13368;SDS011;6753;52.520;13.450;2024-03-08T01:00:54;226.77;;;76.28;;
13368;SDS011;6753;52.520;13.450;2024-03-08T01:01:06;229.23;;;75.85;;
13368;SDS011;6753;52.520;13.450;2024-03-08T01:01:18;226.68;;;75.30;;
13368;SDS011;6753;52.520;13.450;2024-03-08T01:01:29;210.55;;;71.72;;
13368;SDS011;6753;52.520;13.450;2024-03-08T01:01:40;209.80;;;72.20;;
13368;SDS011;6753;52.520;13.450;2024-03-08T01:01:50;215.25;;;73.53;;
13368;SDS011;6753;52.520;13.450;2024-03-08T01:02:01;224.07;;;73.87;;
13368;SDS011;6753;52.520;13.450;2024-03-08T01:02:14;213.85;;;72.07;;
13368;SDS011;6753;52.520;13.450;2024-03-08T01:02:27;209.38;;;73.03;;
13368;SDS011;6753;52.520;13.450;2024-03-08T01:02:39;209.60;;;71.28;;
13368;SDS011;6753;52.520;13.450;2024-03-08T01:02:50;212.40;;;71.15;;
13368;SDS011;6753;52.520;13.450;2024-03-08T01:03:01;196.77;;;70.75;;
13368;SDS011;6753;52.520;13.450;2024-03-08T01:03:13;210.73;;;71.72;;
13368;SDS011;6753;52.520;13.450;2024-03-08T01:03:24;210.80;;;72.40;;
13368;SDS011;6753;52.520;13.450;2024-03-08T01:03:34;214.00;;;71.93;;
13368;SDS011;6753;52.520;13.450;2024-03-08T01:03:45;213.35;;;71.95;;
13368;SDS011;6753;52.520;13.450;2024-03-08T01:03:56;215.07;;;71.25;;
13368;SDS011;6753;52.520;13.450;2024-03-08T01:04:08;215.52;;;72.95;;
13368;SDS011;6753;52.520;13.450;2024-03-08T01:04:19;207.07;;;70.13;;
13368;SDS011;6753;52.520;13.450;2024-03-08T01:04:31;202.98;;;68.70;;